createdAt,value
2022-10-31T06:05:26.932Z,43.20
2022-10-31T06:08:14.281Z,49.65
2022-10-31T06:11:01.750Z,53.90
2022-10-31T06:13:49.117Z,56.15
2022-10-31T06:16:36.465Z,71.30
2022-10-31T06:19:23.790Z,57.47
2022-10-31T06:22:12.576Z,56.05
2022-10-31T06:25:00.078Z,55.50
2022-10-31T06:27:47.398Z,54.30
2022-10-31T06:30:35.097Z,50.10
2022-10-31T06:33:22.394Z,52.38
2022-10-31T06:36:10.793Z,45.92
2022-10-31T06:38:58.156Z,48.25
2022-10-31T06:41:48.552Z,51.83
2022-10-31T06:44:35.889Z,50.92
2022-10-31T06:47:23.191Z,46.88
2022-10-31T06:50:10.496Z,45.65
2022-10-31T06:52:59.618Z,45.60
2022-10-31T06:55:47.084Z,45.78
2022-10-31T06:58:34.820Z,45.65
2022-10-31T07:01:22.486Z,44.95
2022-10-31T07:04:12.983Z,49.88
2022-10-31T07:07:00.301Z,43.72
2022-10-31T07:09:47.981Z,43.95
2022-10-31T07:12:35.294Z,42.72
2022-10-31T07:15:23.535Z,57.90
2022-10-31T07:18:12.564Z,46.17
2022-10-31T07:20:59.906Z,45.38
2022-10-31T07:23:49.695Z,47.50
2022-10-31T07:26:36.958Z,46.30
2022-10-31T07:29:24.265Z,40.13
2022-10-31T07:32:11.865Z,43.70
2022-10-31T07:34:59.161Z,38.40
2022-10-31T07:37:46.625Z,41.22
2022-10-31T07:40:34.040Z,39.70
2022-10-31T07:43:21.606Z,38.45
2022-10-31T07:46:08.902Z,37.40
2022-10-31T07:48:56.304Z,35.75
2022-10-31T07:51:46.471Z,35.67
2022-10-31T07:54:34.113Z,36.30
2022-10-31T07:57:24.180Z,39.78
2022-10-31T08:00:12.801Z,33.95
2022-10-31T08:03:00.471Z,32.92
2022-10-31T08:05:48.250Z,31.27
2022-10-31T08:08:38.265Z,36.70
2022-10-31T08:11:25.882Z,33.90
2022-10-31T08:14:13.112Z,34.30
2022-10-31T08:17:00.424Z,33.00
2022-10-31T08:19:47.666Z,35.17
2022-10-31T08:22:39.877Z,33.40
2022-10-31T08:25:37.264Z,33.53
2022-10-31T08:28:26.332Z,33.15
2022-10-31T08:31:13.620Z,34.22
2022-10-31T08:34:00.997Z,35.20
2022-10-31T08:36:48.346Z,32.03
2022-10-31T08:39:35.690Z,37.22
2022-10-31T08:42:23.030Z,31.85
2022-10-31T08:45:10.871Z,34.67
2022-10-31T08:48:04.292Z,33.78
2022-10-31T08:50:51.883Z,31.75
2022-10-31T08:53:39.187Z,32.35
2022-10-31T08:56:26.617Z,32.15
2022-10-31T08:59:13.968Z,37.85
2022-10-31T09:02:01.419Z,31.73
2022-10-31T09:04:50.275Z,34.92
2022-10-31T09:07:37.626Z,32.30
2022-10-31T09:10:25.949Z,31.25
2022-10-31T09:13:16.448Z,28.52
2022-10-31T09:16:03.991Z,29.88
2022-10-31T09:18:54.362Z,30.15
2022-10-31T09:21:41.665Z,31.80
2022-10-31T09:24:28.938Z,35.55
2022-10-31T09:27:16.271Z,31.15
2022-10-31T09:30:04.730Z,29.15
2022-10-31T09:33:11.213Z,30.88
2022-10-31T09:35:59.668Z,30.83
2022-10-31T09:38:46.993Z,33.88
2022-10-31T09:42:24.798Z,29.50
2022-10-31T09:45:29.921Z,30.55
2022-10-31T09:48:30.610Z,29.50
2022-10-31T09:51:34.109Z,32.28
2022-10-31T09:54:41.706Z,31.60
2022-10-31T09:57:37.429Z,29.85
2022-10-31T10:00:24.892Z,29.98
2022-10-31T10:03:23.848Z,32.05
2022-10-31T10:06:22.668Z,28.55
2022-10-31T10:09:11.178Z,29.42
2022-10-31T10:12:29.476Z,28.77
2022-10-31T10:15:45.170Z,28.00
2022-10-31T10:18:48.042Z,26.48
2022-10-31T11:32:29.864Z,26.63
2022-10-31T11:35:19.569Z,25.90
2022-10-31T11:38:06.926Z,26.90
2022-10-31T11:41:12.691Z,25.65
2022-10-31T11:44:04.700Z,24.80
2022-10-31T11:47:06.693Z,23.77
2022-10-31T11:52:41.603Z,27.45
2022-10-31T11:55:38.427Z,25.92
2022-10-31T11:58:27.413Z,25.88
2022-10-31T12:01:27.051Z,24.83
2022-10-31T12:04:15.329Z,25.25
2022-10-31T12:07:03.140Z,27.42
2022-10-31T12:09:50.880Z,29.98
2022-10-31T12:13:03.069Z,26.38
2022-10-31T12:16:02.648Z,25.40
2022-10-31T12:19:01.749Z,27.17
2022-10-31T12:21:57.317Z,25.52
2022-10-31T12:25:09.558Z,24.98
2022-10-31T12:27:56.854Z,25.30
2022-10-31T12:31:14.585Z,24.40
2022-10-31T12:34:48.821Z,24.55
2022-10-31T12:37:56.935Z,24.25
2022-10-31T12:41:25.735Z,26.08
2022-10-31T12:44:37.713Z,24.40
2022-10-31T12:47:46.571Z,22.73
2022-10-31T12:51:04.301Z,23.98
2022-10-31T12:54:08.840Z,22.00
2022-10-31T12:57:08.497Z,21.15
2022-10-31T13:00:04.619Z,20.60
2022-10-31T13:03:06.420Z,21.27
2022-10-31T13:06:03.726Z,20.77
2022-10-31T13:08:55.433Z,17.95
2022-10-31T13:11:59.723Z,17.80
2022-10-31T13:14:53.235Z,18.02
2022-10-31T13:17:53.117Z,19.05
2022-10-31T13:20:45.003Z,19.35
2022-10-31T13:26:44.164Z,18.48
2022-10-31T13:29:37.111Z,18.90
2022-10-31T13:32:29.788Z,18.70
2022-10-31T13:36:08.611Z,22.88
2022-10-31T13:39:04.377Z,26.30
2022-10-31T13:42:17.542Z,18.58
2022-10-31T13:45:16.716Z,19.17
2022-10-31T13:48:16.101Z,17.13
2022-10-31T13:51:10.085Z,17.08
2022-10-31T13:54:16.180Z,16.70
2022-10-31T13:57:08.545Z,14.70
2022-10-31T14:00:02.369Z,17.25
2022-10-31T14:02:55.479Z,17.38
2022-10-31T14:05:43.609Z,17.05
2022-10-31T14:08:35.500Z,16.67
2022-10-31T14:14:13.336Z,17.45
2022-10-31T14:17:01.254Z,18.40
2022-10-31T14:20:21.203Z,17.90
2022-10-31T14:23:36.590Z,17.23
2022-10-31T14:26:30.153Z,16.83
2022-10-31T14:29:18.073Z,17.40
2022-10-31T14:32:15.577Z,16.70
2022-10-31T14:35:04.271Z,16.83
2022-10-31T14:38:08.868Z,18.67
2022-10-31T14:41:33.024Z,18.73
2022-10-31T14:44:20.676Z,20.02
2022-10-31T14:47:40.138Z,21.08
2022-10-31T14:50:43.188Z,18.08
2022-10-31T14:53:34.831Z,19.48
2022-10-31T14:56:32.449Z,18.15
2022-10-31T14:59:25.704Z,19.52
2022-10-31T15:02:24.289Z,18.45
2022-10-31T15:05:14.051Z,19.10
2022-10-31T15:08:01.627Z,19.98
2022-10-31T15:10:49.114Z,22.08
2022-10-31T15:13:43.767Z,18.92
2022-10-31T15:16:42.057Z,16.02
2022-10-31T15:19:31.679Z,18.60
2022-10-31T15:22:24.712Z,16.83
2022-10-31T15:25:22.773Z,23.02
2022-10-31T15:28:25.628Z,19.23
2022-10-31T15:31:19.304Z,19.58
2022-10-31T15:34:17.819Z,23.80
2022-10-31T15:37:06.224Z,22.17
2022-10-31T15:39:54.366Z,21.40
2022-10-31T15:42:42.587Z,23.42
2022-10-31T15:45:31.514Z,26.60
2022-10-31T15:48:25.516Z,28.65
2022-10-31T15:51:13.607Z,25.98
2022-10-31T15:54:01.395Z,28.23
2022-10-31T15:56:49.576Z,24.38
2022-10-31T15:59:37.037Z,22.42
2022-10-31T16:02:27.244Z,22.40
2022-10-31T16:05:20.511Z,27.17
2022-10-31T16:08:25.451Z,24.27
2022-10-31T16:11:15.634Z,23.83
2022-10-31T16:14:05.978Z,27.70
2022-10-31T16:16:57.452Z,25.25
2022-10-31T16:19:56.160Z,26.15
2022-10-31T16:22:52.068Z,26.15
2022-10-31T16:25:39.936Z,22.00
2022-10-31T16:28:31.967Z,24.30
2022-10-31T16:31:31.222Z,21.27
2022-10-31T16:34:26.617Z,21.98
2022-10-31T16:37:18.375Z,26.50
2022-10-31T16:40:06.121Z,22.17
2022-10-31T16:42:53.794Z,24.42
2022-10-31T16:45:49.217Z,23.20
2022-10-31T16:48:36.838Z,22.15
2022-10-31T16:51:24.732Z,21.73
2022-10-31T16:54:12.274Z,22.08
2022-10-31T16:57:00.764Z,22.67
2022-10-31T16:59:52.717Z,23.00
2022-10-31T17:05:30.901Z,20.67
2022-10-31T17:08:18.295Z,21.80
2022-10-31T17:11:06.863Z,21.88
2022-10-31T17:13:55.876Z,22.30
2022-10-31T17:16:43.535Z,22.40
2022-10-31T17:19:33.682Z,21.83
2022-10-31T17:22:21.202Z,21.35
2022-10-31T17:25:13.781Z,22.50
2022-10-31T17:28:01.332Z,21.70
2022-10-31T17:30:49.021Z,23.45
2022-10-31T17:33:36.585Z,25.25
2022-10-31T17:36:24.187Z,33.88
2022-10-31T17:39:11.858Z,24.30
2022-10-31T17:41:59.271Z,23.20
2022-10-31T17:44:47.134Z,26.58
2022-10-31T17:47:35.541Z,24.85
2022-10-31T17:50:26.693Z,26.25
2022-10-31T17:53:14.702Z,30.13
2022-10-31T17:56:07.389Z,25.77
2022-10-31T17:58:57.281Z,27.77
2022-10-31T18:01:45.903Z,29.67
2022-10-31T18:04:33.298Z,28.70
2022-10-31T18:07:21.286Z,26.98
2022-10-31T18:10:09.432Z,28.50
2022-10-31T18:12:56.730Z,28.25
2022-10-31T18:15:44.840Z,28.67
2022-10-31T18:18:32.136Z,31.08
2022-10-31T18:21:20.671Z,29.23
2022-10-31T18:24:09.322Z,29.35
2022-10-31T18:26:56.793Z,28.73
2022-10-31T18:29:45.517Z,30.42
2022-10-31T18:32:32.869Z,31.52
2022-10-31T18:35:20.224Z,29.13
2022-10-31T18:38:08.197Z,32.35
2022-10-31T18:40:55.842Z,30.38
2022-10-31T18:43:45.827Z,31.02
2022-10-31T18:46:35.467Z,30.17
2022-10-31T18:49:24.427Z,30.38
2022-10-31T18:52:11.832Z,32.10
2022-10-31T18:55:00.517Z,31.05
2022-10-31T18:57:47.952Z,30.45
2022-10-31T19:00:35.365Z,36.05
2022-10-31T19:03:27.012Z,29.40
2022-10-31T19:06:16.911Z,33.45
2022-10-31T19:09:09.423Z,28.13
2022-10-31T19:11:57.219Z,35.65
2022-10-31T19:14:44.583Z,26.90
2022-10-31T19:17:33.052Z,37.05
2022-10-31T19:20:20.512Z,32.83
2022-10-31T19:23:08.433Z,28.38
2022-10-31T19:25:58.980Z,27.73
2022-10-31T19:28:47.549Z,26.48
2022-10-31T19:31:35.058Z,26.77
2022-10-31T19:34:22.453Z,29.65
2022-10-31T19:37:10.338Z,29.65
2022-10-31T19:39:57.738Z,35.15
2022-10-31T19:42:45.184Z,28.95
2022-10-31T19:45:32.480Z,31.58
2022-10-31T19:48:19.831Z,29.02
2022-10-31T19:51:09.970Z,29.60
2022-10-31T19:53:57.382Z,29.08
2022-10-31T19:56:44.735Z,30.33
2022-10-31T19:59:38.154Z,32.65
2022-10-31T20:02:27.470Z,30.08
2022-10-31T20:05:15.417Z,29.88
2022-10-31T20:08:02.961Z,29.92
2022-10-31T20:11:02.452Z,28.80
2022-10-31T20:13:49.888Z,28.92
2022-10-31T20:16:38.691Z,27.70
2022-10-31T20:19:26.307Z,27.30
2022-10-31T20:22:13.998Z,28.83
2022-10-31T20:25:02.467Z,30.70
2022-10-31T20:27:50.947Z,32.20
2022-10-31T20:30:38.279Z,29.50
2022-10-31T20:33:26.012Z,31.98
2022-10-31T20:36:14.893Z,33.15
2022-10-31T20:39:03.222Z,29.75
2022-10-31T20:41:51.079Z,30.83
2022-10-31T20:44:38.472Z,29.83
2022-10-31T20:47:25.959Z,37.20
2022-10-31T20:50:13.361Z,28.67
2022-10-31T20:53:01.599Z,27.77
2022-10-31T20:55:49.796Z,30.63
2022-10-31T20:58:38.926Z,30.05
2022-10-31T21:01:29.523Z,26.88
2022-10-31T21:04:17.024Z,29.00
2022-10-31T21:07:04.565Z,29.98
2022-10-31T21:09:52.746Z,30.90
2022-10-31T21:12:41.347Z,31.02
2022-10-31T21:15:29.426Z,30.17
2022-10-31T21:18:16.926Z,30.08
2022-10-31T21:21:32.861Z,33.72
2022-10-31T21:24:23.524Z,32.97
2022-10-31T21:27:12.454Z,37.83
2022-10-31T21:30:00.863Z,36.17
2022-10-31T21:32:48.409Z,32.67
2022-10-31T21:35:36.523Z,32.13
2022-10-31T21:38:23.788Z,37.30
2022-10-31T21:41:13.930Z,34.95
2022-10-31T21:44:01.429Z,37.10
2022-10-31T21:46:51.712Z,35.17
2022-10-31T21:49:39.023Z,33.30
2022-10-31T21:52:26.305Z,35.13
2022-10-31T21:55:13.925Z,32.17
2022-10-31T21:58:01.635Z,32.70
2022-10-31T22:00:49.469Z,34.17
2022-10-31T22:03:38.305Z,41.42
2022-10-31T22:06:27.345Z,37.42
2022-10-31T22:09:15.870Z,30.27
2022-10-31T22:12:06.766Z,31.17
2022-10-31T22:14:54.241Z,31.95
2022-10-31T22:17:42.135Z,36.92
2022-10-31T22:20:29.465Z,33.85
2022-10-31T22:23:17.107Z,33.80
2022-10-31T22:26:23.116Z,35.45
2022-10-31T22:29:12.594Z,33.35
2022-10-31T22:32:03.109Z,35.03
2022-10-31T22:34:50.610Z,31.85
2022-10-31T22:37:37.912Z,31.30
2022-10-31T22:40:25.633Z,30.23
2022-10-31T22:43:13.119Z,27.50
2022-10-31T22:46:04.883Z,30.50
2022-10-31T22:48:55.375Z,27.10
2022-10-31T22:51:43.939Z,30.48
2022-10-31T22:54:32.092Z,29.52
2022-10-31T22:57:19.409Z,27.98
2022-10-31T23:00:08.595Z,33.88
2022-10-31T23:02:56.193Z,31.85
2022-10-31T23:05:43.742Z,30.10
2022-10-31T23:08:34.539Z,30.48
2022-10-31T23:11:25.600Z,31.08
2022-10-31T23:14:20.546Z,31.20
2022-10-31T23:17:08.258Z,30.77
2022-10-31T23:19:55.683Z,32.55
2022-10-31T23:22:43.291Z,33.20
2022-10-31T23:25:49.238Z,33.60
2022-10-31T23:28:36.556Z,33.47
2022-10-31T23:31:23.882Z,32.58
2022-10-31T23:34:11.282Z,33.03
2022-10-31T23:36:58.765Z,33.33
2022-10-31T23:39:48.271Z,36.50
2022-10-31T23:42:35.746Z,35.40
2022-10-31T23:45:23.586Z,38.25
2022-10-31T23:48:11.014Z,36.63
2022-10-31T23:50:58.330Z,32.55
2022-10-31T23:53:46.069Z,36.80
2022-10-31T23:56:33.701Z,42.08
2022-10-31T23:59:22.987Z,35.50
